Charlotte, NC

4:39 AM EST on February 25, 2017 (GMT -0500)
Charlotte | | Change Station

Elev 0 ft 35.23 °N, 80.85 °W | Updated 3 minutes ago

Partly Cloudy
Partly Cloudy
63.7 °F
Feels Like 63.7 °F
N
1.9
Wind Variable Wind from East
Gusts 4.3 mph

Today
High -- | Low -- °F
--% Chance of Precip.
Yesterday
High -- | Low -- °F
Precip. -- in
Pressure 29.73 in
Visibility 10.0 miles
Clouds Clear
Dew Point 54 °F
Humidity 71%
Rainfall Not available.
Snow Depth Not available.
6:57 AM 6:15 PM
Waning Crescent, 2% visible
METAR KCLT 250852Z 19010KT 10SM CLR 16/12 A2975 RMK AO2 SLP068 T01560122 56015
Pressure 29.73 in
Visibility 10.0 miles
Clouds Clear
Dew Point 54 °F
Humidity 71%
Rainfall Not available.
Snow Depth Not available.
6:57 AM 6:15 PM
Waning Crescent, 2% visible
METAR KCLT 250852Z 19010KT 10SM CLR 16/12 A2975 RMK AO2 SLP068 T01560122 56015

Get Your Daily Forecast Email!

Thanks for signing up!

Be on the lookout for a verification email in your inbox.

You'll start receiving the daily forecast at 8 AM.

×

10-Day Weather Forecast

Almanac

Astronomy

Feb. 25, 2017 Rise Set
Actual Time
Civil Twilight
Nautical Twilight
Astronomical Twilight
Moon
Length of Visible Light
Length of Day
Tomorrow will be .
, % of the Moon is Illuminated

Today's Extremes

State Highs State Lows

Community

WunderPhotos

Upload Photos

1,962,540 photos uploaded!

WunderBlog® & News

Nearby

Air Quality

  Air Quality AQ Index Pollutant
Not available.

Snow Depth

Station Depth Elevation

Earthquake Activity

City Distance Mag. Time & Date
Minimum magnitude displayed is 2.5.

Coastal Water Temperatures

Place Temperature

Stations

Nearby Weather Stations

Station Location Temp. Windchill Dew Point Humidity Wind Precip. Elev Updated Type
                   

Watches & Warnings

There are currently no watches in effect.